createdAt,value
2023-05-05T00:01:10.683Z,10.40
2023-05-05T00:03:38.700Z,12.40
2023-05-05T00:06:05.808Z,10.18
2023-05-05T00:08:32.435Z,9.07
2023-05-05T00:10:58.986Z,9.23
2023-05-05T00:13:28.452Z,8.68
2023-05-05T00:15:55.059Z,8.60
2023-05-05T00:18:21.638Z,10.82
2023-05-05T00:20:49.560Z,9.10
2023-05-05T00:23:16.730Z,9.70
2023-05-05T00:25:43.507Z,9.27
2023-05-05T00:28:10.446Z,9.00
2023-05-05T00:30:37.122Z,9.52
2023-05-05T00:33:04.297Z,8.90
2023-05-05T00:35:31.041Z,9.57
2023-05-05T00:37:58.971Z,9.00
2023-05-05T00:40:25.635Z,9.45
2023-05-05T00:42:52.551Z,8.75
2023-05-05T00:45:20.407Z,9.10
2023-05-05T00:47:48.939Z,8.23
2023-05-05T00:50:22.171Z,8.83
2023-05-05T00:52:49.318Z,10.07
2023-05-05T00:55:17.752Z,10.07
2023-05-05T00:57:45.053Z,9.98
2023-05-05T01:00:12.314Z,10.18
2023-05-05T01:02:39.543Z,9.40
2023-05-05T01:05:07.524Z,8.83
2023-05-05T01:07:44.674Z,9.10
2023-05-05T01:10:20.899Z,9.82
2023-05-05T01:12:58.419Z,10.13
2023-05-05T01:15:33.281Z,9.38
2023-05-05T01:18:17.374Z,9.63
2023-05-05T01:20:53.245Z,8.27
2023-05-05T01:23:43.345Z,8.90
2023-05-05T01:26:24.669Z,9.23
2023-05-05T01:29:13.482Z,12.93
2023-05-05T01:31:48.043Z,9.30
2023-05-05T01:34:19.181Z,10.17
2023-05-05T01:36:52.803Z,9.43
2023-05-05T01:39:21.080Z,9.82
2023-05-05T01:41:50.341Z,9.10
2023-05-05T01:44:17.946Z,9.13
2023-05-05T01:46:47.362Z,9.10
2023-05-05T01:49:15.520Z,10.13
2023-05-05T01:51:43.266Z,8.90
2023-05-05T01:54:10.330Z,9.07
2023-05-05T01:56:39.927Z,9.50
2023-05-05T01:59:07.481Z,9.50
2023-05-05T02:01:37.626Z,8.80
2023-05-05T02:04:07.776Z,9.65
2023-05-05T02:06:35.589Z,11.15
2023-05-05T02:09:03.122Z,9.82
2023-05-05T02:11:30.088Z,10.40
2023-05-05T02:13:58.824Z,10.50
2023-05-05T02:16:26.162Z,11.02
2023-05-05T02:18:54.651Z,9.57
2023-05-05T02:21:22.580Z,9.52
2023-05-05T02:23:49.282Z,11.00
2023-05-05T02:26:17.332Z,10.17
2023-05-05T02:28:48.785Z,8.70
2023-05-05T02:31:17.515Z,10.25
2023-05-05T02:33:46.872Z,8.55
2023-05-05T02:36:19.092Z,9.55
2023-05-05T02:38:48.638Z,9.70
2023-05-05T02:41:19.851Z,9.93
2023-05-05T02:43:49.332Z,9.05
2023-05-05T02:46:16.018Z,10.63
2023-05-05T02:48:42.551Z,8.40
2023-05-05T02:51:09.172Z,8.75
2023-05-05T02:53:36.028Z,8.77
2023-05-05T02:56:34.967Z,8.77
2023-05-05T03:02:27.621Z,10.52
2023-05-05T03:05:00.500Z,9.43
2023-05-05T03:07:32.409Z,8.80
2023-05-05T03:10:06.596Z,8.90
2023-05-05T03:12:39.805Z,11.75
2023-05-05T03:15:10.396Z,8.63
2023-05-05T03:17:38.252Z,9.52
2023-05-05T03:20:06.850Z,8.53
2023-05-05T03:22:35.570Z,8.90
2023-05-05T03:25:02.370Z,9.35
2023-05-05T03:27:29.160Z,13.45
2023-05-05T03:29:57.185Z,10.07
2023-05-05T03:32:24.170Z,11.60
2023-05-05T03:34:50.934Z,9.57
2023-05-05T03:37:17.476Z,13.60
2023-05-05T03:39:44.156Z,9.02
2023-05-05T03:42:10.701Z,9.32
2023-05-05T03:44:37.275Z,11.23
2023-05-05T03:47:05.619Z,10.17
2023-05-05T03:49:32.224Z,11.05
2023-05-05T03:51:58.858Z,8.93
2023-05-05T03:54:25.438Z,10.70
2023-05-05T03:56:52.106Z,11.57
2023-05-05T03:59:18.662Z,9.07
2023-05-05T04:01:45.371Z,10.00
2023-05-05T04:04:13.359Z,9.57
2023-05-05T04:06:39.938Z,8.95
2023-05-05T04:09:06.501Z,9.52
2023-05-05T04:11:33.073Z,8.97
2023-05-05T04:13:59.615Z,9.00
2023-05-05T04:16:26.277Z,9.90
2023-05-05T04:18:52.986Z,8.82
2023-05-05T04:21:20.870Z,11.05
2023-05-05T04:23:47.816Z,11.07
2023-05-05T04:26:14.378Z,10.85
2023-05-05T04:28:41.067Z,9.38
2023-05-05T04:31:07.603Z,10.15
2023-05-05T04:33:34.309Z,9.90
2023-05-05T04:36:00.848Z,9.00
2023-05-05T04:38:28.904Z,10.38
2023-05-05T04:40:55.522Z,9.57
2023-05-05T04:43:22.199Z,11.25
2023-05-05T04:45:55.203Z,11.55
2023-05-05T04:48:21.788Z,13.00
2023-05-05T04:50:48.488Z,9.63
2023-05-05T04:53:15.008Z,12.73
2023-05-05T04:55:43.007Z,9.88
2023-05-05T04:58:09.587Z,10.02
2023-05-05T05:00:36.465Z,11.02
2023-05-05T05:03:03.820Z,8.67
2023-05-05T05:05:30.621Z,8.77
2023-05-05T05:07:57.158Z,10.13
2023-05-05T05:10:23.744Z,11.18
2023-05-05T05:12:51.957Z,10.13
2023-05-05T05:15:18.551Z,12.17
2023-05-05T05:17:45.177Z,13.18
2023-05-05T05:20:12.003Z,10.95
2023-05-05T05:22:38.594Z,10.60
2023-05-05T05:25:05.929Z,12.73
2023-05-05T05:27:32.526Z,10.73
2023-05-05T05:30:00.632Z,10.25
2023-05-05T05:32:27.179Z,9.88
2023-05-05T05:34:53.721Z,15.38
2023-05-05T05:37:20.343Z,9.32
2023-05-05T05:39:51.654Z,10.17
2023-05-05T05:42:18.219Z,10.18
2023-05-05T05:44:44.756Z,9.00
2023-05-05T05:47:12.677Z,12.85
2023-05-05T05:49:39.190Z,8.88
2023-05-05T05:52:05.706Z,10.67
2023-05-05T05:54:32.398Z,8.90
2023-05-05T05:56:58.922Z,11.65
2023-05-05T05:59:25.460Z,11.23
2023-05-05T06:01:52.069Z,9.70
2023-05-05T06:04:20.196Z,10.37
2023-05-05T06:06:46.787Z,10.77
2023-05-05T06:09:13.362Z,11.10
2023-05-05T06:11:39.950Z,9.77
2023-05-05T06:14:06.653Z,11.15
2023-05-05T06:16:33.381Z,9.67
2023-05-05T06:19:00.137Z,12.00
2023-05-05T06:21:28.153Z,9.27
2023-05-05T06:23:54.721Z,10.18
2023-05-05T06:26:21.298Z,10.30
2023-05-05T06:28:47.831Z,10.18
2023-05-05T06:31:14.386Z,10.97
2023-05-05T06:33:41.327Z,9.75
2023-05-05T06:36:08.455Z,13.68
2023-05-05T06:38:36.594Z,10.70
2023-05-05T06:41:03.533Z,11.98
2023-05-05T06:43:30.119Z,11.33
2023-05-05T06:45:58.442Z,9.20
2023-05-05T06:48:25.087Z,8.65
2023-05-05T06:50:51.632Z,11.68
2023-05-05T06:53:18.254Z,9.93
2023-05-05T06:55:47.451Z,11.77
2023-05-05T06:58:14.013Z,11.32
2023-05-05T07:00:40.940Z,10.15
2023-05-05T07:03:07.707Z,11.70
2023-05-05T07:05:34.355Z,13.65
2023-05-05T07:08:00.911Z,10.93
2023-05-05T07:10:27.933Z,11.40
2023-05-05T07:12:56.006Z,11.75
2023-05-05T07:15:28.866Z,10.48
2023-05-05T07:17:56.049Z,10.40
2023-05-05T07:20:22.635Z,10.13
2023-05-05T07:22:49.176Z,9.30
2023-05-05T07:25:15.784Z,11.38
2023-05-05T07:27:42.412Z,8.98
2023-05-05T07:30:14.252Z,9.55
2023-05-05T07:32:43.222Z,8.60
2023-05-05T07:35:10.316Z,10.20
2023-05-05T07:37:36.910Z,12.90
2023-05-05T07:40:04.025Z,9.70
2023-05-05T07:42:30.617Z,10.27
2023-05-05T07:44:57.115Z,9.80
2023-05-05T07:47:25.215Z,9.13
2023-05-05T07:49:51.749Z,9.98
2023-05-05T07:52:18.477Z,11.85
2023-05-05T07:54:45.082Z,10.90
2023-05-05T07:57:11.723Z,8.43
2023-05-05T07:59:38.252Z,10.67
2023-05-05T08:02:04.788Z,10.55
2023-05-05T08:04:32.781Z,11.32
2023-05-05T08:06:59.382Z,9.77
2023-05-05T08:09:25.985Z,8.55
2023-05-05T08:11:52.517Z,10.60
2023-05-05T08:14:27.214Z,11.20
2023-05-05T08:16:53.757Z,8.70
2023-05-05T08:19:28.861Z,10.20
2023-05-05T08:21:58.829Z,12.70
2023-05-05T08:24:26.653Z,10.43
2023-05-05T08:26:53.189Z,10.10
2023-05-05T08:29:19.927Z,10.50
2023-05-05T08:31:46.572Z,9.02
2023-05-05T08:34:13.214Z,7.70
2023-05-05T08:36:39.789Z,8.57
2023-05-05T08:39:07.968Z,8.93
2023-05-05T08:41:35.808Z,8.25
2023-05-05T08:44:02.360Z,7.72
2023-05-05T08:46:29.886Z,8.48
2023-05-05T08:48:58.623Z,8.38
2023-05-05T08:51:29.521Z,7.87
2023-05-05T08:53:57.693Z,8.52
2023-05-05T08:56:31.989Z,9.30
2023-05-05T08:58:59.527Z,9.95
2023-05-05T09:01:26.254Z,9.38
2023-05-05T09:03:53.205Z,7.57
2023-05-05T09:06:20.759Z,8.65
2023-05-05T09:08:47.450Z,9.43
2023-05-05T09:11:14.506Z,8.23
2023-05-05T09:13:42.370Z,9.30
2023-05-05T09:16:09.193Z,8.70
2023-05-05T09:18:37.532Z,8.35
2023-05-05T09:21:18.947Z,9.80
2023-05-05T09:24:08.159Z,7.85
2023-05-05T09:26:36.999Z,8.38
2023-05-05T09:29:06.290Z,9.03
2023-05-05T09:31:34.259Z,8.25
2023-05-05T09:34:01.366Z,9.82
2023-05-05T09:36:47.613Z,9.38
2023-05-05T09:39:14.631Z,9.30
2023-05-05T09:41:42.686Z,9.93
2023-05-05T09:44:11.169Z,10.93
2023-05-05T09:46:38.104Z,12.32
2023-05-05T09:49:14.755Z,11.32
2023-05-05T09:51:41.417Z,9.05
2023-05-05T09:54:08.169Z,10.40
2023-05-05T09:56:38.831Z,10.63
2023-05-05T09:59:09.932Z,12.30
2023-05-05T10:01:36.594Z,9.57
2023-05-05T10:04:03.280Z,11.63
2023-05-05T10:06:44.463Z,12.20
2023-05-05T10:09:11.051Z,9.70
2023-05-05T10:11:38.616Z,8.88
2023-05-05T10:14:07.466Z,9.75
2023-05-05T10:16:35.885Z,10.02
2023-05-05T10:19:03.404Z,8.87
2023-05-05T10:21:33.877Z,8.63
2023-05-05T10:24:09.493Z,10.80
2023-05-05T10:26:41.042Z,11.35
2023-05-05T10:29:13.406Z,10.73
2023-05-05T10:31:45.347Z,8.53
2023-05-05T10:34:18.417Z,8.85
2023-05-05T10:36:45.505Z,9.48
2023-05-05T10:39:15.071Z,8.82
2023-05-05T10:41:42.422Z,10.13
2023-05-05T10:44:09.258Z,10.47
2023-05-05T10:46:36.450Z,8.63
2023-05-05T10:49:12.496Z,9.95
2023-05-05T10:51:46.905Z,9.65
2023-05-05T10:54:19.619Z,9.40
2023-05-05T10:56:47.123Z,9.77
2023-05-05T10:59:41.165Z,8.48
2023-05-05T11:02:25.397Z,9.68
2023-05-05T11:05:09.094Z,8.15
2023-05-05T11:07:36.056Z,7.72
2023-05-05T11:10:07.518Z,8.03
2023-05-05T11:13:15.744Z,12.10
2023-05-05T11:15:42.336Z,9.48
2023-05-05T11:18:29.430Z,7.68
2023-05-05T11:21:08.665Z,8.55
2023-05-05T11:23:35.225Z,8.87
2023-05-05T11:26:01.811Z,7.68
2023-05-05T11:28:29.955Z,9.32
2023-05-05T11:31:15.828Z,8.27
2023-05-05T11:33:42.475Z,10.18
2023-05-05T11:36:11.777Z,10.17
2023-05-05T11:38:48.423Z,9.40
2023-05-05T11:41:28.016Z,8.50
2023-05-05T11:44:08.787Z,8.82
2023-05-05T11:46:35.703Z,8.35
2023-05-05T11:49:02.527Z,9.33
2023-05-05T11:51:31.415Z,7.97
2023-05-05T11:53:59.144Z,6.18
2023-05-05T11:56:25.938Z,6.35
2023-05-05T11:59:09.084Z,6.75
2023-05-05T12:01:39.160Z,7.43
2023-05-05T12:04:05.813Z,6.07
2023-05-05T12:06:34.162Z,5.63
2023-05-05T12:09:01.254Z,5.85
2023-05-05T12:11:27.810Z,6.53
2023-05-05T12:14:15.082Z,6.70
2023-05-05T12:16:53.466Z,5.60
2023-05-05T12:19:20.165Z,5.80
2023-05-05T12:21:48.155Z,7.47
2023-05-05T12:24:15.254Z,7.38
2023-05-05T12:26:41.971Z,7.73
2023-05-05T12:29:08.555Z,7.38
2023-05-05T12:31:35.600Z,15.00
2023-05-05T12:34:06.058Z,14.07
2023-05-05T12:36:33.372Z,16.15
2023-05-05T12:39:01.521Z,16.13
2023-05-05T12:41:28.548Z,13.15
2023-05-05T12:43:55.923Z,11.85
2023-05-05T12:46:23.168Z,13.82
2023-05-05T12:49:00.228Z,14.60
2023-05-05T12:51:27.159Z,13.23
2023-05-05T12:54:04.182Z,12.52
2023-05-05T12:56:35.306Z,13.40
2023-05-05T12:59:03.836Z,15.73
2023-05-05T13:01:30.620Z,14.77
2023-05-05T13:04:08.876Z,15.30
2023-05-05T13:06:35.723Z,13.40
2023-05-05T13:09:03.754Z,17.35
2023-05-05T13:11:30.346Z,14.95
2023-05-05T13:13:56.896Z,11.85
2023-05-05T13:16:23.648Z,12.87
2023-05-05T13:18:50.776Z,10.38
2023-05-05T13:21:17.499Z,10.60
2023-05-05T13:23:44.402Z,10.35
2023-05-05T13:26:13.096Z,12.20
2023-05-05T13:28:40.076Z,10.43
2023-05-05T13:31:06.944Z,13.77
2023-05-05T13:33:34.495Z,10.77
2023-05-05T13:36:01.361Z,10.82
2023-05-05T13:38:28.068Z,10.85
2023-05-05T13:40:54.784Z,9.83
2023-05-05T13:43:22.813Z,11.70
2023-05-05T13:45:49.392Z,12.02
2023-05-05T13:48:15.926Z,9.32
2023-05-05T13:50:42.503Z,9.70
2023-05-05T13:53:09.026Z,9.53
2023-05-05T13:55:35.789Z,10.35
2023-05-05T13:58:02.349Z,10.07
2023-05-05T14:00:30.263Z,10.15
2023-05-05T14:02:56.970Z,8.57
2023-05-05T14:05:23.589Z,8.13
2023-05-05T14:07:50.164Z,7.40
2023-05-05T14:10:16.742Z,7.90
2023-05-05T14:12:43.330Z,8.57
2023-05-05T14:15:10.660Z,8.07
2023-05-05T14:17:38.862Z,7.80
2023-05-05T14:20:06.816Z,7.28
2023-05-05T14:22:33.623Z,6.97
2023-05-05T14:25:00.265Z,7.18
2023-05-05T14:27:26.969Z,8.73
2023-05-05T14:29:53.628Z,7.77
2023-05-05T14:32:20.280Z,7.45
2023-05-05T14:34:50.312Z,7.32
2023-05-05T14:37:21.963Z,7.95
2023-05-05T14:39:49.969Z,7.80
2023-05-05T14:42:16.511Z,6.93
2023-05-05T14:44:44.534Z,8.13
2023-05-05T14:47:13.960Z,9.05
2023-05-05T14:49:40.704Z,7.90
2023-05-05T14:52:11.141Z,7.65
2023-05-05T14:54:37.706Z,8.37
2023-05-05T14:57:04.610Z,7.38
2023-05-05T14:59:31.285Z,7.38
2023-05-05T15:01:57.994Z,8.75
2023-05-05T15:04:24.661Z,8.60
2023-05-05T15:06:51.606Z,8.00
2023-05-05T15:09:19.539Z,7.53
2023-05-05T15:11:46.243Z,9.10
2023-05-05T15:14:12.930Z,7.32
2023-05-05T15:16:39.604Z,6.80
2023-05-05T15:19:06.316Z,7.50
2023-05-05T15:21:35.717Z,9.05
2023-05-05T15:24:02.309Z,7.10
2023-05-05T15:26:31.368Z,9.23
2023-05-05T15:28:57.923Z,6.35
2023-05-05T15:31:24.602Z,5.30
2023-05-05T15:33:51.185Z,6.72
2023-05-05T15:36:17.873Z,6.25
2023-05-05T15:38:44.454Z,4.97
2023-05-05T15:41:11.184Z,6.55
2023-05-05T15:43:39.083Z,4.53
2023-05-05T15:46:05.890Z,5.60
2023-05-05T15:48:32.526Z,5.68
2023-05-05T15:50:59.122Z,6.32
2023-05-05T15:53:25.661Z,4.80
2023-05-05T15:55:52.331Z,5.13
2023-05-05T15:58:18.884Z,4.97
2023-05-05T16:00:46.768Z,6.72
2023-05-05T16:03:13.398Z,5.15
2023-05-05T16:05:39.945Z,4.32
2023-05-05T16:08:06.491Z,5.17
2023-05-05T16:10:33.050Z,5.00
2023-05-05T16:12:59.594Z,6.38
2023-05-05T16:15:26.137Z,5.80
2023-05-05T16:17:54.173Z,6.45
2023-05-05T16:20:22.200Z,6.57
2023-05-05T16:22:48.785Z,5.75
2023-05-05T16:25:18.016Z,6.05
2023-05-05T16:27:44.580Z,4.97
2023-05-05T16:30:12.256Z,5.85
2023-05-05T16:32:38.891Z,7.20
2023-05-05T16:35:07.552Z,7.45
2023-05-05T16:37:34.718Z,6.50
2023-05-05T16:40:01.304Z,6.53
2023-05-05T16:42:27.870Z,6.78
2023-05-05T16:44:54.413Z,6.13
2023-05-05T16:47:21.088Z,6.22
2023-05-05T16:49:47.652Z,6.32
2023-05-05T16:52:15.537Z,7.32
2023-05-05T16:54:42.186Z,6.82
2023-05-05T16:57:08.785Z,6.60
2023-05-05T16:59:35.376Z,6.07
2023-05-05T17:02:01.956Z,8.25
2023-05-05T17:04:28.482Z,7.65
2023-05-05T17:06:55.019Z,6.13
2023-05-05T17:09:22.903Z,6.07
2023-05-05T17:11:51.688Z,6.00
2023-05-05T17:14:18.224Z,6.50
2023-05-05T17:16:44.935Z,5.68
2023-05-05T17:19:14.417Z,5.80
2023-05-05T17:21:40.975Z,7.50
2023-05-05T17:24:08.349Z,7.80
2023-05-05T17:26:36.242Z,6.40
2023-05-05T17:29:02.861Z,6.30
2023-05-05T17:31:29.426Z,7.28
2023-05-05T17:33:56.064Z,9.20
2023-05-05T17:36:22.679Z,6.63
2023-05-05T17:38:49.283Z,8.57
2023-05-05T17:41:15.887Z,10.00
2023-05-05T17:43:43.785Z,9.18
2023-05-05T17:46:10.354Z,10.20
2023-05-05T17:48:36.962Z,10.23
2023-05-05T17:51:03.640Z,8.48
2023-05-05T17:53:30.249Z,7.28
2023-05-05T17:55:56.787Z,9.15
2023-05-05T17:58:23.445Z,6.57
2023-05-05T18:00:51.453Z,7.90
2023-05-05T18:03:18.354Z,7.95
2023-05-05T18:05:45.119Z,7.90
2023-05-05T18:08:11.665Z,8.05
2023-05-05T18:10:38.404Z,7.10
2023-05-05T18:13:05.054Z,7.97
2023-05-05T18:15:31.756Z,7.97
2023-05-05T18:17:59.752Z,7.25
2023-05-05T18:20:26.384Z,8.10
2023-05-05T18:22:53.127Z,7.35
2023-05-05T18:25:19.934Z,8.13
2023-05-05T18:27:46.466Z,7.85
2023-05-05T18:30:13.367Z,7.07
2023-05-05T18:32:39.981Z,7.22
2023-05-05T18:35:09.186Z,7.07
2023-05-05T18:37:35.814Z,7.43
2023-05-05T18:40:02.559Z,7.53
2023-05-05T18:42:29.137Z,8.48
2023-05-05T18:44:55.715Z,7.07
2023-05-05T18:47:22.259Z,7.30
2023-05-05T18:49:48.819Z,7.63
2023-05-05T18:52:16.794Z,10.15
2023-05-05T18:54:43.374Z,7.82
2023-05-05T18:57:10.002Z,8.95
2023-05-05T18:59:36.551Z,8.15
2023-05-05T19:02:03.086Z,7.40
2023-05-05T19:04:31.759Z,7.95
2023-05-05T19:06:58.632Z,7.88
2023-05-05T19:09:26.706Z,7.15
2023-05-05T19:11:53.279Z,8.10
2023-05-05T19:14:19.874Z,8.13
2023-05-05T19:16:46.668Z,8.07
2023-05-05T19:19:13.351Z,7.68
2023-05-05T19:21:39.948Z,8.57
2023-05-05T19:24:09.461Z,8.15
2023-05-05T19:26:37.396Z,8.87
2023-05-05T19:29:04.160Z,7.82
2023-05-05T19:31:31.158Z,9.55
2023-05-05T19:34:00.917Z,8.13
2023-05-05T19:36:28.132Z,9.02
2023-05-05T19:38:55.665Z,9.77
2023-05-05T19:41:22.439Z,9.55
2023-05-05T19:43:50.405Z,9.02
2023-05-05T19:46:17.274Z,10.00
2023-05-05T19:48:43.860Z,9.00
2023-05-05T19:51:10.440Z,8.77
2023-05-05T19:53:36.956Z,10.75
2023-05-05T19:56:03.960Z,9.13
2023-05-05T19:58:30.512Z,7.88
2023-05-05T20:00:58.467Z,9.13
2023-05-05T20:03:25.318Z,9.63
2023-05-05T20:05:51.853Z,9.32
2023-05-05T20:08:18.450Z,9.02
2023-05-05T20:10:45.015Z,10.13
2023-05-05T20:13:11.596Z,10.55
2023-05-05T20:15:38.423Z,9.63
2023-05-05T20:18:06.491Z,10.57
2023-05-05T20:20:33.269Z,11.85
2023-05-05T20:22:59.784Z,10.20
2023-05-05T20:25:26.742Z,10.18
2023-05-05T20:27:53.270Z,9.70
2023-05-05T20:30:19.875Z,10.82
2023-05-05T20:32:46.473Z,12.82
2023-05-05T20:35:14.466Z,10.60
2023-05-05T20:37:41.459Z,12.63
2023-05-05T20:40:09.445Z,8.87
2023-05-05T20:42:36.454Z,7.13
2023-05-05T20:45:03.376Z,7.03
2023-05-05T20:47:30.019Z,7.00
2023-05-05T20:49:56.652Z,6.25
2023-05-05T20:52:24.598Z,10.30
2023-05-05T20:54:51.150Z,5.95
2023-05-05T20:57:17.762Z,7.05
2023-05-05T20:59:44.376Z,7.35
2023-05-05T21:02:11.003Z,7.28
2023-05-05T21:04:37.832Z,7.43
2023-05-05T21:07:04.433Z,7.70
2023-05-05T21:09:32.575Z,7.13
2023-05-05T21:11:59.228Z,6.82
2023-05-05T21:14:25.921Z,5.72
2023-05-05T21:16:52.537Z,7.47
2023-05-05T21:19:27.933Z,6.90
2023-05-05T21:21:54.586Z,7.00
2023-05-05T21:24:21.124Z,6.60
2023-05-05T21:26:49.073Z,6.82
2023-05-05T21:29:15.663Z,6.50
2023-05-05T21:31:42.376Z,6.55
2023-05-05T21:34:09.130Z,6.68
2023-05-05T21:36:35.674Z,6.63
2023-05-05T21:39:02.328Z,5.50
2023-05-05T21:41:29.087Z,6.33
2023-05-05T21:43:57.873Z,6.55
2023-05-05T21:46:24.635Z,5.50
2023-05-05T21:48:51.226Z,6.75
2023-05-05T21:51:18.809Z,6.13
2023-05-05T21:53:45.471Z,7.43
2023-05-05T21:56:12.025Z,5.53
2023-05-05T21:58:40.494Z,5.03
2023-05-05T22:01:08.498Z,6.53
2023-05-05T22:03:36.308Z,6.32
2023-05-05T22:06:03.022Z,4.50
2023-05-05T22:08:29.558Z,6.90
2023-05-05T22:10:56.110Z,5.80
2023-05-05T22:13:22.720Z,5.00
2023-05-05T22:15:49.552Z,6.28
2023-05-05T22:18:17.621Z,5.20
2023-05-05T22:20:44.269Z,5.70
2023-05-05T22:23:10.978Z,6.63
2023-05-05T22:25:37.482Z,6.63
2023-05-05T22:28:04.583Z,5.25
2023-05-05T22:30:32.402Z,6.35
2023-05-05T22:32:59.025Z,5.50
2023-05-05T22:35:27.382Z,5.93
2023-05-05T22:37:54.071Z,5.63
2023-05-05T22:40:20.679Z,7.65
2023-05-05T22:42:47.262Z,5.85
2023-05-05T22:45:13.913Z,7.17
2023-05-05T22:47:40.651Z,5.90
2023-05-05T22:50:08.324Z,6.85
2023-05-05T22:52:36.363Z,6.15
2023-05-05T22:55:03.091Z,6.22
2023-05-05T22:57:31.786Z,6.33
2023-05-05T23:00:00.117Z,5.60
2023-05-05T23:02:27.091Z,6.90
2023-05-05T23:04:53.901Z,6.13
2023-05-05T23:07:20.471Z,6.55
2023-05-05T23:09:48.493Z,8.70
2023-05-05T23:12:15.155Z,6.85
2023-05-05T23:14:41.699Z,6.40
2023-05-05T23:17:08.234Z,7.43
2023-05-05T23:19:35.158Z,7.07
2023-05-05T23:22:01.988Z,6.77
2023-05-05T23:24:29.001Z,7.63
2023-05-05T23:26:59.046Z,7.45
2023-05-05T23:29:28.158Z,8.68
2023-05-05T23:31:54.776Z,7.60
2023-05-05T23:34:21.456Z,7.30
2023-05-05T23:36:48.097Z,7.00
2023-05-05T23:39:14.868Z,7.85
2023-05-05T23:41:41.452Z,8.98
2023-05-05T23:44:09.552Z,10.93
2023-05-05T23:46:36.540Z,9.43
2023-05-05T23:49:03.216Z,7.73
2023-05-05T23:51:29.842Z,7.13
2023-05-05T23:53:56.731Z,7.25
2023-05-05T23:56:23.465Z,8.20
2023-05-05T23:58:50.082Z,8.82
